createdAt,value
2022-12-08T00:01:35.306Z,98053.58
2022-12-08T00:04:03.907Z,98052.16
2022-12-08T00:06:49.535Z,98051.74
2022-12-08T00:09:25.819Z,98052.39
2022-12-08T00:11:55.656Z,98046.84
2022-12-08T00:14:26.606Z,98041.98
2022-12-08T00:16:54.706Z,98046.64
2022-12-08T00:19:22.480Z,98047.02
2022-12-08T00:21:49.368Z,98051.98
2022-12-08T00:24:16.161Z,98056.81
2022-12-08T00:26:43.092Z,98055.27
2022-12-08T00:29:15.886Z,98057.42
2022-12-08T00:31:44.349Z,98058.08
2022-12-08T00:34:14.095Z,98063.02
2022-12-08T00:36:41.480Z,98064.98
2022-12-08T00:39:08.737Z,98071.81
2022-12-08T00:41:50.781Z,98073.09
2022-12-08T00:44:19.013Z,98077.67
2022-12-08T00:46:46.825Z,98074.25
2022-12-08T00:49:13.952Z,98074.98
2022-12-08T00:51:40.896Z,98076.67
2022-12-08T00:54:08.065Z,98080.08
2022-12-08T00:56:35.097Z,98083.30
2022-12-08T00:59:04.415Z,98082.98
2022-12-08T01:01:31.755Z,98078.59
2022-12-08T01:03:58.539Z,98080.05
2022-12-08T01:06:25.217Z,98087.92
2022-12-08T01:08:51.974Z,98098.10
2022-12-08T01:11:19.752Z,98096.19
2022-12-08T01:13:47.068Z,98097.10
2022-12-08T01:16:23.677Z,98102.53
2022-12-08T01:18:51.311Z,98097.85
2022-12-08T01:21:18.912Z,98096.61
2022-12-08T01:23:46.461Z,98100.38
2022-12-08T01:26:16.281Z,98098.35
2022-12-08T01:28:43.959Z,98097.00
2022-12-08T01:31:16.769Z,98094.30
2022-12-08T01:33:44.309Z,98093.11
2022-12-08T01:36:24.159Z,98092.91
2022-12-08T01:38:52.450Z,98092.52
2022-12-08T01:41:22.511Z,98088.56
2022-12-08T01:43:58.744Z,98084.45
2022-12-08T01:46:26.436Z,98088.29
2022-12-08T01:48:59.354Z,98084.33
2022-12-08T01:51:26.720Z,98083.20
2022-12-08T01:53:53.786Z,98082.63
2022-12-08T01:56:28.381Z,98082.10
2022-12-08T01:58:55.972Z,98076.23
2022-12-08T02:01:23.184Z,98081.60
2022-12-08T02:03:58.294Z,98078.45
2022-12-08T02:06:27.525Z,98080.98
2022-12-08T02:08:55.335Z,98084.74
2022-12-08T02:11:22.196Z,98086.45
2022-12-08T02:13:52.275Z,98092.09
2022-12-08T02:16:34.459Z,98092.84
2022-12-08T02:19:32.318Z,98084.95
2022-12-08T02:22:18.171Z,98088.95
2022-12-08T02:24:50.892Z,98085.96
2022-12-08T02:27:24.276Z,98085.17
2022-12-08T02:29:52.054Z,98082.42
2022-12-08T02:32:33.996Z,98087.34
2022-12-08T02:35:06.115Z,98087.65
2022-12-08T02:37:41.147Z,98088.31
2022-12-08T02:40:13.962Z,98087.42
2022-12-08T02:42:47.123Z,98090.17
2022-12-08T02:45:21.159Z,98097.77
2022-12-08T02:47:48.266Z,98096.20
2022-12-08T02:50:15.740Z,98094.34
2022-12-08T02:52:45.621Z,98094.08
2022-12-08T02:55:21.642Z,98091.13
2022-12-08T02:58:05.645Z,98095.23
2022-12-08T03:00:48.989Z,98098.21
2022-12-08T03:03:22.816Z,98099.50
2022-12-08T03:05:56.077Z,98093.19
2022-12-08T03:08:33.259Z,98092.79
2022-12-08T03:11:20.503Z,98093.16
2022-12-08T03:13:52.352Z,98093.83
2022-12-08T03:16:24.720Z,98092.71
2022-12-08T03:19:01.685Z,98085.08
2022-12-08T03:21:29.951Z,98086.09
2022-12-08T03:23:57.605Z,98083.02
2022-12-08T03:26:31.660Z,98082.52
2022-12-08T03:28:58.760Z,98081.97
2022-12-08T03:31:28.895Z,98082.48
2022-12-08T03:33:58.580Z,98080.02
2022-12-08T03:36:25.979Z,98079.34
2022-12-08T03:38:53.928Z,98077.23
2022-12-08T03:41:22.497Z,98070.61
2022-12-08T03:43:53.275Z,98076.17
2022-12-08T03:48:48.507Z,98072.52
2022-12-08T03:51:30.774Z,98071.75
2022-12-08T03:53:57.471Z,98074.02
2022-12-08T03:56:27.482Z,98073.72
2022-12-08T03:58:55.439Z,98073.89
2022-12-08T04:01:23.202Z,98079.34
2022-12-08T04:03:50.401Z,98077.02
2022-12-08T04:06:17.653Z,98084.38
2022-12-08T04:08:44.587Z,98084.48
2022-12-08T04:11:12.003Z,98084.44
2022-12-08T04:13:40.318Z,98083.16
2022-12-08T04:16:08.326Z,98088.15
2022-12-08T04:18:36.389Z,98086.02
2022-12-08T04:21:03.233Z,98087.04
2022-12-08T04:23:29.973Z,98084.31
2022-12-08T04:25:56.719Z,98081.45
2022-12-08T04:28:23.460Z,98083.45
2022-12-08T04:30:50.273Z,98080.85
2022-12-08T04:33:17.096Z,98079.02
2022-12-08T04:35:44.056Z,98078.66
2022-12-08T04:38:10.977Z,98074.07
2022-12-08T04:40:37.850Z,98075.60
2022-12-08T04:43:05.089Z,98073.36
2022-12-08T04:45:32.185Z,98072.98
2022-12-08T04:48:00.033Z,98068.41
2022-12-08T04:50:26.865Z,98066.00
2022-12-08T04:52:54.221Z,98070.22
2022-12-08T04:55:21.593Z,98068.36
2022-12-08T04:57:48.500Z,98069.02
2022-12-08T05:00:15.734Z,98068.60
2022-12-08T05:02:42.935Z,98068.34
2022-12-08T05:05:10.194Z,98069.37
2022-12-08T05:07:36.973Z,98068.33
2022-12-08T05:10:04.559Z,98071.80
2022-12-08T05:12:31.548Z,98069.68
2022-12-08T05:14:58.300Z,98070.52
2022-12-08T05:17:25.043Z,98064.98
2022-12-08T05:19:51.829Z,98063.92
2022-12-08T05:22:18.658Z,98064.96
2022-12-08T05:24:47.674Z,98064.52
2022-12-08T05:27:14.857Z,98067.23
2022-12-08T05:29:42.228Z,98068.18
2022-12-08T05:32:09.269Z,98068.12
2022-12-08T05:34:36.035Z,98066.79
2022-12-08T05:37:02.809Z,98065.58
2022-12-08T05:39:29.519Z,98063.59
2022-12-08T05:41:56.246Z,98065.81
2022-12-08T05:44:23.085Z,98065.69
2022-12-08T05:46:49.945Z,98068.04
2022-12-08T05:49:16.725Z,98067.48
2022-12-08T05:51:43.598Z,98068.74
2022-12-08T05:54:10.987Z,98068.71
2022-12-08T05:56:37.710Z,98072.84
2022-12-08T05:59:08.234Z,98080.20
2022-12-08T06:01:35.674Z,98077.35
2022-12-08T06:04:04.032Z,98080.45
2022-12-08T06:06:31.680Z,98084.77
2022-12-08T06:08:58.445Z,98086.91
2022-12-08T06:11:29.000Z,98090.44
2022-12-08T06:13:56.874Z,98093.80
2022-12-08T06:16:24.595Z,98089.98
2022-12-08T06:18:51.465Z,98089.20
2022-12-08T06:21:19.047Z,98087.25
2022-12-08T06:23:49.850Z,98085.73
2022-12-08T06:26:16.933Z,98084.88
2022-12-08T06:28:44.037Z,98087.30
2022-12-08T06:31:29.269Z,98090.57
2022-12-08T06:33:56.089Z,98094.64
2022-12-08T06:36:26.117Z,98094.48
2022-12-08T06:38:53.188Z,98099.56
2022-12-08T06:41:20.168Z,98096.90
2022-12-08T06:43:47.202Z,98099.70
2022-12-08T06:46:17.316Z,98099.39
2022-12-08T06:48:44.613Z,98096.77
2022-12-08T06:51:15.858Z,98103.80
2022-12-08T06:53:44.082Z,98110.93
2022-12-08T06:56:12.017Z,98112.10
2022-12-08T06:58:39.476Z,98112.79
2022-12-08T07:01:07.996Z,98117.20
2022-12-08T07:03:35.697Z,98118.48
2022-12-08T07:06:04.325Z,98122.48
2022-12-08T07:08:32.724Z,98122.27
2022-12-08T07:10:59.724Z,98126.71
2022-12-08T07:13:26.564Z,98125.61
2022-12-08T07:15:53.420Z,98122.80
2022-12-08T07:18:20.263Z,98122.54
2022-12-08T07:20:46.998Z,98120.96
2022-12-08T07:23:13.693Z,98121.92
2022-12-08T07:25:40.496Z,98121.64
2022-12-08T07:28:10.110Z,98119.44
2022-12-08T07:30:37.327Z,98122.30
2022-12-08T07:33:05.948Z,98119.45
2022-12-08T07:35:35.064Z,98114.13
2022-12-08T07:38:02.577Z,98115.31
2022-12-08T07:40:29.661Z,98119.37
2022-12-08T07:42:56.456Z,98115.09
2022-12-08T07:45:29.783Z,98117.77
2022-12-08T07:47:58.445Z,98113.04
2022-12-08T07:50:25.225Z,98116.50
2022-12-08T07:52:51.947Z,98116.81
2022-12-08T07:55:18.635Z,98116.11
2022-12-08T07:57:45.391Z,98115.55
2022-12-08T08:00:13.001Z,98115.73
2022-12-08T08:02:40.408Z,98116.33
2022-12-08T08:05:07.936Z,98115.27
2022-12-08T08:07:35.015Z,98118.52
2022-12-08T08:10:01.944Z,98117.26
2022-12-08T08:12:31.667Z,98113.86
2022-12-08T08:15:00.520Z,98117.52
2022-12-08T08:17:27.724Z,98116.06
2022-12-08T08:19:54.641Z,98115.92
2022-12-08T08:22:21.367Z,98122.79
2022-12-08T08:24:48.062Z,98122.93
2022-12-08T08:27:14.764Z,98119.77
2022-12-08T08:29:41.482Z,98116.70
2022-12-08T08:32:08.349Z,98118.77
2022-12-08T08:34:35.115Z,98117.14
2022-12-08T08:37:01.952Z,98120.61
2022-12-08T08:39:30.381Z,98115.58
2022-12-08T08:41:57.518Z,98115.13
2022-12-08T08:44:24.290Z,98112.41
2022-12-08T08:46:51.081Z,98110.68
2022-12-08T08:49:18.747Z,98110.05
2022-12-08T08:51:45.713Z,98111.32
2022-12-08T08:54:12.630Z,98111.39
2022-12-08T08:56:39.381Z,98108.98
2022-12-08T08:59:06.242Z,98107.55
2022-12-08T09:01:33.993Z,98109.13
2022-12-08T09:04:01.588Z,98103.64
2022-12-08T09:06:28.666Z,98100.41
2022-12-08T09:08:56.186Z,98102.14
2022-12-08T09:11:24.522Z,98103.98
2022-12-08T09:13:53.591Z,98101.63
2022-12-08T09:16:21.383Z,98098.73
2022-12-08T09:18:49.818Z,98095.27
2022-12-08T09:21:22.724Z,98095.94
2022-12-08T09:23:51.253Z,98095.11
2022-12-08T09:26:18.078Z,98090.95
2022-12-08T09:28:46.732Z,98085.17
2022-12-08T09:31:14.731Z,98078.73
2022-12-08T09:33:42.056Z,98078.05
2022-12-08T09:36:09.756Z,98078.25
2022-12-08T09:38:37.220Z,98073.95
2022-12-08T09:41:14.487Z,98073.64
2022-12-08T09:43:51.606Z,98070.91
2022-12-08T09:46:20.563Z,98066.57
2022-12-08T09:48:56.092Z,98060.48
2022-12-08T09:51:26.123Z,98054.61
2022-12-08T09:54:07.881Z,98051.56
2022-12-08T09:56:37.342Z,98051.11
2022-12-08T09:59:21.107Z,98054.15
2022-12-08T10:01:48.039Z,98049.33
2022-12-08T10:04:34.238Z,98048.39
2022-12-08T10:07:13.786Z,98046.90
2022-12-08T10:10:02.436Z,98043.23
2022-12-08T10:13:00.092Z,98041.65
2022-12-08T10:15:32.299Z,98039.22
2022-12-08T10:18:03.044Z,98044.95
2022-12-08T10:20:38.647Z,98049.16
2022-12-08T10:23:16.476Z,98045.10
2022-12-08T10:25:49.409Z,98039.71
2022-12-08T10:28:16.343Z,98041.46
2022-12-08T10:30:43.254Z,98037.79
2022-12-08T10:33:15.833Z,98037.92
2022-12-08T10:35:46.207Z,98033.52
2022-12-08T10:38:31.354Z,98035.41
2022-12-08T10:41:04.838Z,98030.67
2022-12-08T10:43:33.315Z,98027.14
2022-12-08T10:46:18.340Z,98024.70
2022-12-08T10:48:51.820Z,98025.71
2022-12-08T10:51:34.492Z,98023.49
2022-12-08T10:54:01.598Z,98025.11
2022-12-08T10:56:30.783Z,98022.94
2022-12-08T10:59:13.702Z,98022.38
2022-12-08T11:01:41.616Z,98015.86
2022-12-08T11:04:20.324Z,98015.33
2022-12-08T11:06:48.988Z,98016.65
2022-12-08T11:09:15.698Z,98014.73
2022-12-08T11:12:07.047Z,98014.41
2022-12-08T11:14:51.375Z,98010.14
2022-12-08T11:17:26.729Z,98012.66
2022-12-08T11:20:04.302Z,98009.32
2022-12-08T11:22:35.168Z,98015.21
2022-12-08T11:25:18.784Z,98012.09
2022-12-08T11:27:49.385Z,98019.11
2022-12-08T11:30:20.930Z,98018.24
2022-12-08T11:32:54.962Z,98020.65
2022-12-08T11:35:28.977Z,98020.94
2022-12-08T11:38:13.733Z,98021.52
2022-12-08T11:40:48.020Z,98016.66
2022-12-08T11:43:35.651Z,98016.83
2022-12-08T11:46:19.286Z,98014.52
2022-12-08T11:49:05.619Z,98014.60
2022-12-08T11:51:37.250Z,98012.84
2022-12-08T11:54:04.119Z,98014.71
2022-12-08T11:56:38.764Z,98016.97
2022-12-08T11:59:28.992Z,98018.86
2022-12-08T12:01:58.071Z,98018.41
2022-12-08T12:04:35.971Z,98024.07
2022-12-08T12:07:33.960Z,98024.27
2022-12-08T12:10:18.501Z,98024.51
2022-12-08T12:13:15.021Z,98023.44
2022-12-08T12:16:15.078Z,98021.84
2022-12-08T12:18:50.448Z,98018.21
2022-12-08T12:21:23.312Z,98018.13
2022-12-08T12:23:53.519Z,98019.84
2022-12-08T12:26:23.967Z,98014.89
2022-12-08T12:28:55.749Z,98017.08
2022-12-08T12:31:26.605Z,98016.46
2022-12-08T12:34:03.291Z,98015.11
2022-12-08T12:36:32.434Z,98012.96
2022-12-08T12:39:01.192Z,98013.19
2022-12-08T12:41:32.304Z,98010.23
2022-12-08T12:44:14.215Z,98009.71
2022-12-08T12:46:49.409Z,98005.02
2022-12-08T12:49:39.953Z,98002.34
2022-12-08T12:52:06.848Z,97998.59
2022-12-08T12:54:33.595Z,98002.13
2022-12-08T12:57:04.763Z,98001.07
2022-12-08T12:59:35.093Z,97999.63
2022-12-08T13:02:02.826Z,97997.77
2022-12-08T13:04:33.871Z,97995.65
2022-12-08T13:07:01.040Z,97995.25
2022-12-08T13:09:30.953Z,97997.38
2022-12-08T13:12:01.886Z,97996.86
2022-12-08T13:14:30.285Z,97997.33
2022-12-08T13:16:59.220Z,97999.30
2022-12-08T13:19:29.469Z,97998.21
2022-12-08T13:21:56.299Z,97998.80
2022-12-08T13:24:23.982Z,97992.62
2022-12-08T13:27:11.199Z,97988.59
2022-12-08T13:29:39.173Z,97984.70
2022-12-08T13:32:09.869Z,97988.08
2022-12-08T13:34:50.660Z,97984.57
2022-12-08T13:37:24.349Z,97983.58
2022-12-08T13:39:58.379Z,97979.27
2022-12-08T13:42:32.683Z,97973.08
2022-12-08T13:45:27.918Z,97980.63
2022-12-08T13:48:36.749Z,97981.81
2022-12-08T13:57:10.772Z,97983.55
2022-12-08T13:59:43.501Z,97988.05
2022-12-08T14:02:20.702Z,97989.27
2022-12-08T14:05:17.475Z,97991.45
2022-12-08T14:07:35.101Z,97991.29
2022-12-08T14:10:03.789Z,97991.66
2022-12-08T14:12:31.728Z,97993.71
2022-12-08T14:15:14.961Z,97993.60
2022-12-08T14:17:52.300Z,97998.90
2022-12-08T14:20:23.923Z,97996.37
2022-12-08T14:22:52.358Z,97990.03
2022-12-08T14:25:20.402Z,97998.55
2022-12-08T14:27:48.816Z,97999.11
2022-12-08T14:30:21.256Z,98003.79
2022-12-08T14:32:52.766Z,98000.65
2022-12-08T14:35:26.522Z,97998.62
2022-12-08T14:37:57.747Z,97996.52
2022-12-08T14:40:34.822Z,97997.48
2022-12-08T14:43:13.749Z,98002.77
2022-12-08T14:45:40.500Z,98005.34
2022-12-08T14:48:25.689Z,98009.42
2022-12-08T14:51:15.458Z,98012.09
2022-12-08T14:53:59.999Z,98007.52
2022-12-08T14:56:50.440Z,98007.09
2022-12-08T14:59:25.394Z,98006.64
2022-12-08T15:02:09.012Z,98007.50
2022-12-08T15:04:39.503Z,98007.07
2022-12-08T15:07:13.680Z,98006.43
2022-12-08T15:09:41.596Z,98001.56
2022-12-08T15:12:15.713Z,98004.89
2022-12-08T15:14:42.365Z,98004.72
2022-12-08T15:17:28.944Z,98002.69
2022-12-08T15:19:57.318Z,98003.78
2022-12-08T15:22:25.011Z,98001.38
2022-12-08T15:24:51.786Z,98000.19
2022-12-08T15:27:20.353Z,98001.14
2022-12-08T15:29:48.321Z,98001.02
2022-12-08T15:32:19.932Z,98005.63
2022-12-08T15:34:47.239Z,98000.77
2022-12-08T15:37:21.649Z,98000.91
2022-12-08T15:39:49.064Z,97992.95
2022-12-08T15:42:15.880Z,97995.55
2022-12-08T15:44:42.893Z,97998.60
2022-12-08T15:47:18.160Z,97999.16
2022-12-08T15:49:45.926Z,97996.17
2022-12-08T15:52:15.599Z,97991.05
2022-12-08T15:54:42.582Z,97984.75
2022-12-08T15:57:53.086Z,97984.44
2022-12-08T16:00:50.985Z,97985.23
2022-12-08T16:09:13.300Z,97983.47
2022-12-08T16:12:06.673Z,97984.92
2022-12-08T16:17:22.131Z,97979.39
2022-12-08T16:19:49.491Z,97978.49
2022-12-08T16:25:24.404Z,97973.83
2022-12-08T16:28:12.424Z,97976.86
2022-12-08T16:30:40.887Z,97973.14
2022-12-08T16:33:07.889Z,97972.77
2022-12-08T16:35:34.632Z,97971.77
2022-12-08T16:38:01.358Z,97973.52
2022-12-08T16:41:03.888Z,97970.37
2022-12-08T16:43:32.660Z,97969.21
2022-12-08T16:45:59.692Z,97966.89
2022-12-08T16:48:26.550Z,97966.64
2022-12-08T16:50:54.195Z,97965.79
2022-12-08T16:53:20.918Z,97965.58
2022-12-08T16:55:49.232Z,97964.31
2022-12-08T16:58:18.522Z,97959.63
2022-12-08T17:00:45.399Z,97961.25
2022-12-08T17:03:14.624Z,97962.89
2022-12-08T17:05:41.605Z,97956.90
2022-12-08T17:08:08.394Z,97958.88
2022-12-08T17:10:39.415Z,97957.66
2022-12-08T17:13:06.355Z,97958.35
2022-12-08T17:15:33.161Z,97955.09
2022-12-08T17:17:59.905Z,97953.80
2022-12-08T17:20:28.882Z,97955.80
2022-12-08T17:22:58.113Z,97952.52
2022-12-08T17:25:26.940Z,97959.50
2022-12-08T17:27:54.090Z,97957.17
2022-12-08T17:30:20.912Z,97955.35
2022-12-08T17:32:47.629Z,97950.33
2022-12-08T17:35:15.235Z,97946.77
2022-12-08T17:37:43.603Z,97947.91
2022-12-08T17:40:11.445Z,97945.83
2022-12-08T17:42:38.800Z,97947.56
2022-12-08T17:45:07.756Z,97941.99
2022-12-08T17:47:35.053Z,97941.78
2022-12-08T17:50:02.140Z,97942.45
2022-12-08T17:52:29.065Z,97943.94
2022-12-08T17:54:55.882Z,97945.14
2022-12-08T17:57:22.721Z,97942.59
2022-12-08T17:59:49.420Z,97938.70
2022-12-08T18:02:16.417Z,97939.55
2022-12-08T18:04:43.156Z,97938.83
2022-12-08T18:07:09.881Z,97932.57
2022-12-08T18:09:36.641Z,97934.61
2022-12-08T18:12:03.461Z,97933.73
2022-12-08T18:14:30.363Z,97932.62
2022-12-08T18:16:57.140Z,97927.93
2022-12-08T18:19:23.971Z,97923.52
2022-12-08T18:21:50.900Z,97925.35
2022-12-08T18:24:22.283Z,97921.08
2022-12-08T18:26:52.200Z,97921.48
2022-12-08T18:29:21.322Z,97917.07
2022-12-08T18:31:48.481Z,97914.87
2022-12-08T18:34:15.307Z,97912.11
2022-12-08T18:36:42.312Z,97913.85
2022-12-08T18:39:21.070Z,97910.59
2022-12-08T18:41:47.772Z,97909.12
2022-12-08T18:44:14.442Z,97907.58
2022-12-08T18:46:41.168Z,97907.05
2022-12-08T18:49:12.315Z,97906.11
2022-12-08T18:51:39.177Z,97904.14
2022-12-08T18:54:05.897Z,97902.24
2022-12-08T18:56:34.835Z,97909.15
2022-12-08T18:59:05.576Z,97903.84
2022-12-08T19:01:33.663Z,97907.96
2022-12-08T19:04:27.396Z,97907.15
2022-12-08T19:06:48.546Z,97906.02
2022-12-08T19:09:30.905Z,97904.66
2022-12-08T19:11:58.129Z,97906.55
2022-12-08T19:14:28.271Z,97906.86
2022-12-08T19:16:56.545Z,97905.02
2022-12-08T19:19:24.114Z,97901.16
2022-12-08T19:21:51.257Z,97902.88
2022-12-08T19:24:18.408Z,97902.34
2022-12-08T19:26:45.502Z,97902.58
2022-12-08T19:29:12.516Z,97903.27
2022-12-08T19:31:39.744Z,97905.50
2022-12-08T19:34:08.650Z,97905.00
2022-12-08T19:36:39.795Z,97908.27
2022-12-08T19:39:21.775Z,97905.80
2022-12-08T19:42:04.261Z,97905.90
2022-12-08T19:44:54.308Z,97905.54
2022-12-08T19:47:24.157Z,97905.70
2022-12-08T19:49:51.945Z,97902.19
2022-12-08T19:52:18.984Z,97901.84
2022-12-08T19:54:46.374Z,97903.13
2022-12-08T19:57:29.044Z,97899.81
2022-12-08T19:59:58.305Z,97897.90
2022-12-08T20:02:25.343Z,97898.77
2022-12-08T20:04:52.364Z,97896.80
2022-12-08T20:07:21.960Z,97898.77
2022-12-08T20:09:48.790Z,97897.20
2022-12-08T20:12:15.496Z,97896.96
2022-12-08T20:14:45.906Z,97898.28
2022-12-08T20:17:28.588Z,97895.58
2022-12-08T20:19:55.310Z,97901.48
2022-12-08T20:22:22.039Z,97899.23
2022-12-08T20:24:57.229Z,97899.45
2022-12-08T20:27:28.585Z,97901.20
2022-12-08T20:30:16.494Z,97900.78
2022-12-08T20:32:44.354Z,97896.17
2022-12-08T20:35:11.074Z,97891.76
2022-12-08T20:37:37.781Z,97894.26
2022-12-08T20:40:06.749Z,97900.14
2022-12-08T20:42:33.476Z,97895.73
2022-12-08T20:45:00.191Z,97898.80
2022-12-08T20:47:27.119Z,97899.44
2022-12-08T20:49:55.426Z,97897.94
2022-12-08T20:52:22.210Z,97900.90
2022-12-08T20:54:48.997Z,97901.32
2022-12-08T20:57:15.800Z,97902.84
2022-12-08T20:59:43.356Z,97899.41
2022-12-08T21:02:11.185Z,97907.63
2022-12-08T21:04:38.048Z,97905.44
2022-12-08T21:07:04.883Z,97903.19
2022-12-08T21:09:31.700Z,97902.63
2022-12-08T21:11:58.577Z,97910.48
2022-12-08T21:14:25.321Z,97909.64
2022-12-08T21:16:54.581Z,97908.40
2022-12-08T21:19:37.985Z,97905.62
2022-12-08T21:22:04.751Z,97903.67
2022-12-08T21:24:34.424Z,97908.92
2022-12-08T21:27:01.849Z,97904.41
2022-12-08T21:29:30.250Z,97907.05
2022-12-08T21:32:08.894Z,97905.70
2022-12-08T21:34:37.416Z,97902.52
2022-12-08T21:37:04.336Z,97905.48
2022-12-08T21:39:31.190Z,97904.74
2022-12-08T21:42:13.793Z,97898.92
2022-12-08T21:44:40.775Z,97902.19
2022-12-08T21:47:07.924Z,97901.21
2022-12-08T21:49:34.762Z,97895.59
2022-12-08T21:52:01.565Z,97891.84
2022-12-08T21:54:28.646Z,97893.66
2022-12-08T21:56:55.866Z,97894.15
2022-12-08T21:59:22.688Z,97894.63
2022-12-08T22:01:49.533Z,97893.20
2022-12-08T22:04:18.864Z,97897.08
2022-12-08T22:06:45.970Z,97892.59
2022-12-08T22:09:15.218Z,97887.30
2022-12-08T22:11:43.254Z,97891.80
2022-12-08T22:14:14.422Z,97888.55
2022-12-08T22:16:43.014Z,97887.45
2022-12-08T22:19:10.147Z,97888.74
2022-12-08T22:21:38.346Z,97891.05
2022-12-08T22:24:05.731Z,97887.92
2022-12-08T22:26:32.692Z,97881.60
2022-12-08T22:29:00.473Z,97879.41
2022-12-08T22:31:28.117Z,97881.45
2022-12-08T22:33:55.938Z,97882.70
2022-12-08T22:36:25.425Z,97881.80
2022-12-08T22:38:53.403Z,97884.46
2022-12-08T22:41:21.750Z,97880.51
2022-12-08T22:43:49.179Z,97882.82
2022-12-08T22:46:17.425Z,97885.02
2022-12-08T22:48:44.608Z,97880.60
2022-12-08T22:51:11.361Z,97881.29
2022-12-08T22:53:38.777Z,97879.60
2022-12-08T22:56:07.469Z,97879.20
2022-12-08T22:58:35.378Z,97879.80
2022-12-08T23:01:02.532Z,97879.52
2022-12-08T23:03:29.544Z,97880.41
2022-12-08T23:05:57.386Z,97882.66
2022-12-08T23:08:24.885Z,97885.56
2022-12-08T23:10:53.823Z,97882.40
2022-12-08T23:13:21.620Z,97880.28
2022-12-08T23:15:48.570Z,97883.90
2022-12-08T23:18:19.140Z,97882.38
2022-12-08T23:20:46.957Z,97879.90
2022-12-08T23:23:14.526Z,97875.48
2022-12-08T23:25:42.345Z,97875.61
2022-12-08T23:28:09.926Z,97876.23
2022-12-08T23:30:40.139Z,97867.39
2022-12-08T23:33:07.016Z,97868.58
2022-12-08T23:35:34.068Z,97866.07
2022-12-08T23:38:01.204Z,97862.25
2022-12-08T23:40:28.281Z,97862.86
2022-12-08T23:42:55.124Z,97862.23
2022-12-08T23:45:22.082Z,97860.50
2022-12-08T23:47:49.020Z,97862.19
2022-12-08T23:50:15.937Z,97864.73
2022-12-08T23:52:42.727Z,97861.37
2022-12-08T23:55:11.302Z,97861.99
2022-12-08T23:57:39.183Z,97860.64
